Wetterdaten der Wetterstation 41540 Dormagen

Letzte Wetterlage 30.01.2015 05:36
Wetterdiagramm
Tabellarische Darstellung
Datum Temperatur Windchill Feuchte Luftdruck Windrichtung Windstärke Niederschlag
30.01.2015 05:36 1,1 °C -6,1 °C 81 % 976,0 hPa 270 4.4 0,00 mm
30.01.2015 05:26 1,1 °C -3,1 °C 82 % 975,9 hPa 270 3.1 0,00 mm
30.01.2015 05:14 1,1 °C -4,6 °C 82 % 975,7 hPa 270 3.7 0,00 mm
30.01.2015 05:04 1,2 °C -1,0 °C 82 % 975,6 hPa 315 2.4 0,00 mm
30.01.2015 04:54 1,1 °C -3,1 °C 82 % 975,6 hPa 315 3.1 0,00 mm
30.01.2015 04:44 1,1 °C -3,9 °C 83 % 975,4 hPa 270 3.4 0,00 mm
30.01.2015 04:34 1,1 °C -2,0 °C 83 % 975,2 hPa 270 2.7 0,00 mm
30.01.2015 04:24 1,1 °C -1,1 °C 83 % 975,0 hPa 270 2.4 0,00 mm
30.01.2015 04:14 1,2 °C -5,4 °C 83 % 975,0 hPa 293 4.1 0,00 mm
30.01.2015 04:04 1,2 °C -1,0 °C 84 % 974,8 hPa 270 2.4 0,00 mm
30.01.2015 03:59 1,2 °C -3,0 °C 84 % 974,5 hPa 270 3.1 0,00 mm
30.01.2015 03:54 1,2 °C -3,0 °C 84 % 974,7 hPa 315 3.1 0,00 mm
30.01.2015 03:44 1,1 °C -3,1 °C 84 % 974,5 hPa 270 3.1 0,00 mm
30.01.2015 03:34 1,0 °C -1,2 °C 84 % 974,3 hPa 315 2.4 0,10 mm
30.01.2015 03:24 1,0 °C -2,1 °C 84 % 974,1 hPa 270 2.7 0,10 mm
30.01.2015 03:14 1,0 °C -2,1 °C 84 % 974,2 hPa 180 2.7 0,20 mm
30.01.2015 03:04 1,0 °C -5,6 °C 84 % 974,1 hPa 270 4.1 0,40 mm
30.01.2015 02:54 1,0 °C -5,6 °C 84 % 974,1 hPa 315 4.1 0,40 mm
30.01.2015 02:44 0,9 °C -4,1 °C 84 % 973,9 hPa 315 3.4 0,50 mm
30.01.2015 02:34 1,0 °C -2,1 °C 83 % 973,8 hPa 315 2.7 0,50 mm
30.01.2015 02:24 1,0 °C -1,2 °C 83 % 973,9 hPa 270 2.4 0,70 mm
30.01.2015 02:14 1,1 °C -3,1 °C 83 % 973,7 hPa 270 3.1 0,90 mm
30.01.2015 02:04 1,5 °C -4,1 °C 83 % 973,6 hPa 315 3.7 0,90 mm
30.01.2015 01:54 1,6 °C -2,6 °C 83 % 973,3 hPa 270 3.1 1,20 mm
30.01.2015 01:44 1,7 °C -1,3 °C 83 % 973,1 hPa 315 2.7 1,10 mm
Neue Wetterwarnung

Neue Niederschlagsmeldung
Neue Meldung
Regen Liveticker
    sehr starker Regen/Gewitter
    starker Regen/Gewitter
    mäßiger bis starker Regen
    mäßiger Regen
    leichter bis mäßiger Regen
    kein Regen
    Empfehlen Sie wetter.com